Tribune, Canada
Current Conditions -  °F | °C
As of 7:35 PM on Tuesday 25 Nov 2014 (Local Time) from KD50 Reporting Station
Overcast Overcast  
Wind Chill: -15°   Ceiling: 1400
Heat Index: -9°   Visibility: 10mi
Dew Point: -10°   Wind: 9mph
Humidity: 93%   Direction: 50°NE
Pressure: 30.08"   Gusts: NA
Location:  49.25°N, 103.82°W
Report Text: KD50 260135Z AUTO 05008KT 10SM BKN014 BKN020 OVC028 M09/M10 A3008 RMK AO2
Loading
Personal Weather Stations






























Interactive Weather Map New forecast layout! Learn more

10-Day Weather Forecast

Advertisements
Track Severe Weather on mobile